createdAt,value
2018-11-02T00:01:28.306Z,101298.07
2018-11-02T00:03:57.236Z,101297.14
2018-11-02T00:06:25.648Z,101275.08
2018-11-02T00:08:53.938Z,101288.86
2018-11-02T00:11:22.259Z,101301.28
2018-11-02T00:13:50.592Z,101305.73
2018-11-02T00:16:19.185Z,101302.70
2018-11-02T00:18:47.512Z,101301.16
2018-11-02T00:21:15.843Z,101307.32
2018-11-02T00:23:44.192Z,101320.42
2018-11-02T00:26:12.531Z,101316.91
2018-11-02T00:28:40.277Z,101313.77
2018-11-02T00:31:08.606Z,101311.08
2018-11-02T00:33:37.522Z,101315.63
2018-11-02T00:36:05.854Z,101318.75
2018-11-02T00:38:34.188Z,101327.52
2018-11-02T00:41:02.570Z,101315.61
2018-11-02T00:43:31.130Z,101309.14
2018-11-02T00:45:59.459Z,101321.70
2018-11-02T00:48:27.208Z,101318.70
2018-11-02T00:50:55.532Z,101320.45
2018-11-02T00:53:23.859Z,101317.04
2018-11-02T00:55:52.238Z,101316.39
2018-11-02T00:58:21.143Z,101317.00
2018-11-02T01:00:49.475Z,101314.48
2018-11-02T01:03:17.245Z,101321.36
2018-11-02T01:05:46.216Z,101318.00
2018-11-02T01:08:14.568Z,101314.19
2018-11-02T01:10:42.318Z,101315.98
2018-11-02T01:13:11.254Z,101313.42
2018-11-02T01:15:39.000Z,101318.08
2018-11-02T01:18:07.920Z,101321.17
2018-11-02T01:20:35.661Z,101325.33
2018-11-02T01:23:03.996Z,101327.46
2018-11-02T01:25:32.322Z,101338.02
2018-11-02T01:28:01.241Z,101339.67
2018-11-02T01:30:28.989Z,101336.52
2018-11-02T01:32:57.911Z,101335.55
2018-11-02T01:35:25.667Z,101338.49
2018-11-02T01:37:54.583Z,101345.63
2018-11-02T01:40:22.906Z,101341.52
2018-11-02T01:42:51.238Z,101344.96
2018-11-02T01:45:19.392Z,101352.86
2018-11-02T01:47:47.730Z,101352.20
2018-11-02T01:50:16.634Z,101355.11
2018-11-02T01:52:44.405Z,101366.92
2018-11-02T01:55:13.309Z,101371.70
2018-11-02T01:57:41.058Z,101366.93
2018-11-02T02:00:09.974Z,101370.06
2018-11-02T02:02:38.310Z,101355.58
2018-11-02T02:05:06.064Z,101362.45
2018-11-02T02:07:34.396Z,101353.17
2018-11-02T02:10:03.317Z,101344.28
2018-11-02T02:12:31.070Z,101343.55
2018-11-02T02:14:59.994Z,101338.69
2018-11-02T02:17:27.740Z,101344.80
2018-11-02T02:19:56.651Z,101341.55
2018-11-02T02:22:24.989Z,101346.56
2018-11-02T02:24:52.743Z,101343.47
2018-11-02T02:27:21.065Z,101336.34
2018-11-02T02:29:49.977Z,101338.37
2018-11-02T02:32:17.724Z,101338.95
2018-11-02T02:34:46.632Z,101342.72
2018-11-02T02:37:14.962Z,101345.60
2018-11-02T02:39:43.300Z,101348.74
2018-11-02T02:42:12.451Z,101344.84
2018-11-02T02:44:40.789Z,101348.28
2018-11-02T02:47:09.114Z,101349.47
2018-11-02T02:49:37.454Z,101357.75
2018-11-02T02:52:05.769Z,101355.39
2018-11-02T02:54:34.134Z,101360.58
2018-11-02T02:57:02.491Z,101369.69
2018-11-02T02:59:30.216Z,101375.45
2018-11-02T03:01:58.552Z,101370.56
2018-11-02T03:04:26.900Z,101369.73
2018-11-02T03:06:55.827Z,101369.37
2018-11-02T03:09:24.148Z,101382.34
2018-11-02T03:11:52.483Z,101381.30
2018-11-02T03:14:20.248Z,101389.50
2018-11-02T03:16:49.281Z,101385.19
2018-11-02T03:19:17.609Z,101385.09
2018-11-02T03:21:45.941Z,101383.81
2018-11-02T03:24:14.300Z,101385.91
2018-11-02T03:26:42.620Z,101386.73
2018-11-02T03:29:10.396Z,101389.09
2018-11-02T03:31:39.311Z,101394.17
2018-11-02T03:34:07.093Z,101394.42
2018-11-02T03:36:35.400Z,101393.66
2018-11-02T03:39:04.322Z,101397.40
2018-11-02T03:41:32.650Z,101406.08
2018-11-02T03:44:00.985Z,101402.98
2018-11-02T03:46:28.757Z,101413.74
2018-11-02T03:48:57.347Z,101417.95
2018-11-02T03:51:25.677Z,101418.04
2018-11-02T03:53:54.587Z,101412.87
2018-11-02T03:56:22.914Z,101413.80
2018-11-02T03:58:50.687Z,101414.55
2018-11-02T04:01:19.600Z,101424.58
2018-11-02T04:03:47.939Z,101433.27
2018-11-02T04:06:16.262Z,101433.35
2018-11-02T04:08:44.602Z,101449.73
2018-11-02T04:11:12.368Z,101455.13
2018-11-02T04:13:41.317Z,101449.89
2018-11-02T04:16:09.614Z,101448.00
2018-11-02T04:18:37.945Z,101452.39
2018-11-02T04:21:05.705Z,101465.11
2018-11-02T04:23:34.016Z,101466.53
2018-11-02T04:26:02.939Z,101465.47
2018-11-02T04:28:31.274Z,101471.64
2018-11-02T04:30:59.118Z,101465.95
2018-11-02T04:33:27.342Z,101479.62
2018-11-02T04:35:56.263Z,101486.66
2018-11-02T04:38:24.475Z,101487.77
2018-11-02T04:40:52.944Z,101484.09
2018-11-02T04:43:20.703Z,101494.80
2018-11-02T04:45:49.609Z,101490.15
2018-11-02T04:48:17.358Z,101488.45
2018-11-02T04:50:46.310Z,101501.27
2018-11-02T04:53:14.076Z,101501.42
2018-11-02T04:55:42.396Z,101503.36
2018-11-02T04:58:10.743Z,101509.94
2018-11-02T05:00:39.669Z,101507.86
2018-11-02T05:03:07.985Z,101506.63
2018-11-02T05:05:36.320Z,101508.22
2018-11-02T05:08:04.061Z,101499.34
2018-11-02T05:10:32.402Z,101502.09
2018-11-02T05:13:00.733Z,101506.47
2018-11-02T05:15:29.069Z,101513.62
2018-11-02T05:17:57.409Z,101522.42
2018-11-02T05:20:26.328Z,101524.88
2018-11-02T05:22:54.642Z,101533.96
2018-11-02T05:25:22.980Z,101532.20
2018-11-02T05:27:50.723Z,101531.05
2018-11-02T05:30:19.631Z,101536.95
2018-11-02T05:32:47.967Z,101537.14
2018-11-02T05:35:16.296Z,101538.58
2018-11-02T05:37:44.637Z,101541.04
2018-11-02T05:40:12.973Z,101539.03
2018-11-02T05:42:41.301Z,101545.73
2018-11-02T05:45:09.630Z,101550.31
2018-11-02T05:47:38.205Z,101555.90
2018-11-02T05:50:06.528Z,101553.38
2018-11-02T05:52:34.284Z,101563.42
2018-11-02T05:55:02.629Z,101562.69
2018-11-02T05:57:30.958Z,101569.94
2018-11-02T05:59:59.305Z,101571.54
2018-11-02T06:02:27.632Z,101575.98
2018-11-02T06:04:55.974Z,101589.17
2018-11-02T06:07:25.809Z,101594.25
2018-11-02T06:09:53.554Z,101597.38
2018-11-02T06:12:22.520Z,101597.33
2018-11-02T06:14:50.238Z,101598.69
2018-11-02T06:17:19.371Z,101602.75
2018-11-02T06:19:47.142Z,101604.47
2018-11-02T06:22:16.059Z,101599.44
2018-11-02T06:24:44.400Z,101603.48
2018-11-02T06:27:12.142Z,101601.72
2018-11-02T06:29:40.533Z,101609.17
2018-11-02T06:32:09.380Z,101623.36
2018-11-02T06:34:37.128Z,101624.13
2018-11-02T06:37:06.047Z,101620.30
2018-11-02T06:39:33.792Z,101622.17
2018-11-02T06:42:02.173Z,101628.38
2018-11-02T06:44:30.453Z,101626.45
2018-11-02T06:46:58.799Z,101633.84
2018-11-02T06:49:27.688Z,101644.66
2018-11-02T06:51:55.461Z,101650.26
2018-11-02T06:54:23.761Z,101656.97
2018-11-02T06:56:52.091Z,101657.14
2018-11-02T06:59:21.061Z,101669.80
2018-11-02T07:01:49.568Z,101677.14
2018-11-02T07:04:17.909Z,101685.98
2018-11-02T07:06:46.231Z,101686.69
2018-11-02T07:09:13.971Z,101705.53
2018-11-02T07:11:42.888Z,101717.63
2018-11-02T07:14:10.633Z,101700.59
2018-11-02T07:16:38.961Z,101704.08
2018-11-02T07:19:07.863Z,101717.83
2018-11-02T07:21:35.627Z,101719.33
2018-11-02T07:24:03.931Z,101737.09
2018-11-02T07:26:32.834Z,101725.52
2018-11-02T07:29:01.175Z,101732.24
2018-11-02T07:31:29.498Z,101743.91
2018-11-02T07:33:57.525Z,101732.42
2018-11-02T07:36:25.569Z,101715.93
2018-11-02T07:38:53.898Z,101738.52
2018-11-02T07:41:23.028Z,101740.55
2018-11-02T07:43:51.150Z,101748.73
2018-11-02T07:46:19.099Z,101744.70
2018-11-02T07:48:47.201Z,101744.61
2018-11-02T07:51:16.161Z,101746.28
2018-11-02T07:53:44.483Z,101756.16
2018-11-02T07:56:12.798Z,101749.18
2018-11-02T07:58:41.118Z,101752.48
2018-11-02T08:01:09.435Z,101749.30
2018-11-02T08:03:37.177Z,101756.25
2018-11-02T08:06:06.863Z,101759.94
2018-11-02T08:08:34.609Z,101757.39
2018-11-02T08:11:03.516Z,101765.13
2018-11-02T08:13:31.842Z,101771.48
2018-11-02T08:15:59.598Z,101779.88
2018-11-02T08:18:27.922Z,101770.62
2018-11-02T08:20:56.836Z,101774.34
2018-11-02T08:23:25.202Z,101789.90
2018-11-02T08:25:52.971Z,101799.36
2018-11-02T08:28:21.871Z,101812.16
2018-11-02T08:30:50.200Z,101807.56
2018-11-02T08:33:18.544Z,101803.77
2018-11-02T08:35:46.277Z,101821.95
2018-11-02T08:38:15.185Z,101824.77
2018-11-02T08:40:42.922Z,101828.11
2018-11-02T08:43:11.260Z,101834.33
2018-11-02T08:45:39.576Z,101836.83
2018-11-02T08:48:07.894Z,101841.47
2018-11-02T08:50:36.225Z,101844.02
2018-11-02T08:53:05.162Z,101856.50
2018-11-02T08:55:32.904Z,101866.05
2018-11-02T08:58:02.186Z,101866.61
2018-11-02T09:00:30.175Z,101869.23
2018-11-02T09:02:57.920Z,101873.73
2018-11-02T09:05:26.244Z,101878.66
2018-11-02T09:07:54.571Z,101883.20
2018-11-02T09:10:23.483Z,101883.66
2018-11-02T09:12:51.662Z,101884.44
2018-11-02T09:15:20.226Z,101883.33
2018-11-02T09:17:48.591Z,101882.13
2018-11-02T09:20:16.884Z,101884.03
2018-11-02T09:22:45.212Z,101889.47
2018-11-02T09:25:12.962Z,101888.30
2018-11-02T09:27:41.906Z,101881.93
2018-11-02T09:30:10.207Z,101886.91
2018-11-02T09:32:38.529Z,101887.84
2018-11-02T09:35:06.268Z,101882.48
2018-11-02T09:37:35.177Z,101887.87
2018-11-02T09:40:02.936Z,101886.32
2018-11-02T09:42:31.931Z,101890.02
2018-11-02T09:45:00.171Z,101888.02
2018-11-02T09:47:28.834Z,101890.13
2018-11-02T09:49:57.164Z,101889.69
2018-11-02T09:52:25.487Z,101894.51
2018-11-02T09:54:53.803Z,101900.32
2018-11-02T09:57:22.125Z,101898.08
2018-11-02T09:59:50.434Z,101906.30
2018-11-02T10:02:18.769Z,101907.72
2018-11-02T10:04:47.094Z,101909.53
2018-11-02T10:07:15.656Z,101910.85
2018-11-02T10:09:44.695Z,101907.63
2018-11-02T10:12:13.575Z,101905.19
2018-11-02T10:14:41.897Z,101905.77
2018-11-02T10:17:09.629Z,101911.91
2018-11-02T10:19:38.532Z,101917.03
2018-11-02T10:22:06.860Z,101915.17
2018-11-02T10:24:34.606Z,101914.84
2018-11-02T10:27:03.539Z,101922.36
2018-11-02T10:29:31.844Z,101923.53
2018-11-02T10:31:59.592Z,101925.02
2018-11-02T10:34:28.508Z,101933.92
2018-11-02T10:36:56.835Z,101939.55
2018-11-02T10:39:25.882Z,101936.44
2018-11-02T10:41:54.216Z,101945.25
2018-11-02T10:44:22.585Z,101957.56
2018-11-02T10:46:51.847Z,101956.58
2018-11-02T10:49:18.874Z,101953.02
2018-11-02T10:51:47.735Z,101962.34
2018-11-02T10:54:15.512Z,101970.42
2018-11-02T10:56:43.836Z,101966.67
2018-11-02T10:59:12.717Z,101968.69
2018-11-02T11:01:45.038Z,101979.05
2018-11-02T11:04:12.776Z,101984.98
2018-11-02T11:06:41.679Z,101985.78
2018-11-02T11:09:10.024Z,101989.36
2018-11-02T11:11:37.855Z,101986.25
2018-11-02T11:14:06.113Z,101991.98
2018-11-02T11:16:35.039Z,102001.90
2018-11-02T11:19:03.349Z,102005.70
2018-11-02T11:21:31.724Z,102005.80
2018-11-02T11:24:00.508Z,102003.88
2018-11-02T11:26:28.609Z,102001.96
2018-11-02T11:28:56.908Z,102003.53
2018-11-02T11:31:25.227Z,102002.80
2018-11-02T11:33:53.543Z,102003.95
2018-11-02T11:36:21.869Z,102003.80
2018-11-02T11:38:50.407Z,102001.27
2018-11-02T11:41:19.325Z,102001.52
2018-11-02T11:43:47.653Z,101999.56
2018-11-02T11:46:15.400Z,102000.30
2018-11-02T11:48:44.315Z,102001.22
2018-11-02T11:51:13.591Z,102011.22
2018-11-02T11:53:42.566Z,102018.56
2018-11-02T11:56:11.244Z,102011.84
2018-11-02T11:58:38.981Z,102013.13
2018-11-02T12:01:07.310Z,102014.89
2018-11-02T12:03:35.639Z,102016.63
2018-11-02T12:06:04.544Z,102011.61
2018-11-02T12:08:32.287Z,102012.86
2018-11-02T12:11:01.181Z,102017.38
2018-11-02T12:13:29.516Z,102015.42
2018-11-02T12:15:57.323Z,102017.55
2018-11-02T12:18:26.159Z,102034.02
2018-11-02T12:20:53.903Z,102036.55
2018-11-02T12:23:23.049Z,102029.64
2018-11-02T12:25:50.756Z,102031.20
2018-11-02T12:28:19.705Z,102024.61
2018-11-02T12:30:47.971Z,102028.95
2018-11-02T12:33:16.283Z,102026.89
2018-11-02T12:35:44.031Z,102031.44
2018-11-02T12:38:12.936Z,102031.50
2018-11-02T12:40:41.317Z,102035.67
2018-11-02T12:43:09.675Z,102039.86
2018-11-02T12:45:37.393Z,102042.43
2018-11-02T12:48:06.455Z,102035.94
2018-11-02T12:50:34.748Z,102037.98
2018-11-02T12:53:02.947Z,102044.88
2018-11-02T12:55:31.273Z,102051.02
2018-11-02T12:57:59.608Z,102050.31
2018-11-02T13:00:27.935Z,102053.58
2018-11-02T13:02:56.314Z,102057.50
2018-11-02T13:05:24.592Z,102062.14
2018-11-02T13:07:52.327Z,102064.99
2018-11-02T13:10:20.652Z,102069.27
2018-11-02T13:12:49.550Z,102068.92
2018-11-02T13:15:17.290Z,102072.77
2018-11-02T13:17:45.613Z,102073.07
2018-11-02T13:20:14.548Z,102073.19
2018-11-02T13:22:44.141Z,102079.77
2018-11-02T13:25:11.607Z,102083.88
2018-11-02T13:27:39.973Z,102083.31
2018-11-02T13:30:08.280Z,102086.54
2018-11-02T13:32:37.169Z,102096.91
2018-11-02T13:35:05.499Z,102098.13
2018-11-02T13:37:33.248Z,102094.53
2018-11-02T13:40:02.432Z,102092.62
2018-11-02T13:42:30.174Z,102098.08
2018-11-02T13:44:59.439Z,102098.66
2018-11-02T13:47:27.983Z,102104.55
2018-11-02T13:49:56.078Z,102099.28
2018-11-02T13:52:24.403Z,102094.97
2018-11-02T13:54:52.376Z,102092.06
2018-11-02T13:57:20.489Z,102090.95
2018-11-02T13:59:49.422Z,102093.56
2018-11-02T14:02:17.137Z,102096.69
2018-11-02T14:04:46.051Z,102108.45
2018-11-02T14:07:13.810Z,102112.06
2018-11-02T14:09:42.725Z,102119.03
2018-11-02T14:12:10.468Z,102117.69
2018-11-02T14:14:40.615Z,102114.39
2018-11-02T14:17:07.979Z,102112.72
2018-11-02T14:19:36.323Z,102106.48
2018-11-02T14:22:04.086Z,102107.34
2018-11-02T14:24:32.404Z,102108.26
2018-11-02T14:27:01.323Z,102110.94
2018-11-02T14:29:29.676Z,102114.05
2018-11-02T14:31:57.986Z,102109.34
2018-11-02T14:34:25.737Z,102116.92
2018-11-02T14:36:54.065Z,102116.62
2018-11-02T14:39:22.398Z,102114.22
2018-11-02T14:41:50.738Z,102118.98
2018-11-02T14:44:19.649Z,102117.45
2018-11-02T14:46:47.414Z,102119.48
2018-11-02T14:49:16.320Z,102127.02
2018-11-02T14:51:44.647Z,102128.66
2018-11-02T14:54:12.406Z,102131.42
2018-11-02T14:56:41.318Z,102133.08
2018-11-02T14:59:09.574Z,102131.47
2018-11-02T15:01:39.010Z,102138.32
2018-11-02T15:04:06.763Z,102148.11
2018-11-02T15:06:35.678Z,102155.88
2018-11-02T15:09:03.436Z,102156.36
2018-11-02T15:11:31.839Z,102153.14
2018-11-02T15:14:01.079Z,102151.67
2018-11-02T15:16:29.425Z,102154.94
2018-11-02T15:18:57.767Z,102163.52
2018-11-02T15:21:26.661Z,102177.55
2018-11-02T15:23:54.409Z,102179.38
2018-11-02T15:26:22.797Z,102182.31
2018-11-02T15:28:51.655Z,102180.78
2018-11-02T15:31:20.004Z,102175.81
2018-11-02T15:33:48.333Z,102180.22
2018-11-02T15:36:16.093Z,102193.46
2018-11-02T15:38:44.541Z,102193.79
2018-11-02T15:41:13.633Z,102191.98
2018-11-02T15:43:41.976Z,102190.77
2018-11-02T15:46:09.755Z,102192.48
2018-11-02T15:48:38.059Z,102184.08
2018-11-02T15:51:06.992Z,102182.63
2018-11-02T15:53:35.330Z,102182.06
2018-11-02T15:56:03.649Z,102182.20
2018-11-02T15:58:31.984Z,102186.73
2018-11-02T16:01:00.315Z,102181.84
2018-11-02T16:03:28.664Z,102188.97
2018-11-02T16:05:56.985Z,102202.00
2018-11-02T16:08:25.318Z,102206.95
2018-11-02T16:10:53.641Z,102204.65
2018-11-02T16:13:22.773Z,102211.39
2018-11-02T16:15:51.111Z,102217.94
2018-11-02T16:18:19.442Z,102210.72
2018-11-02T16:20:47.183Z,102220.40
2018-11-02T16:23:16.106Z,102231.08
2018-11-02T16:25:44.445Z,102231.35
2018-11-02T16:28:12.789Z,102233.44
2018-11-02T16:30:41.126Z,102246.94
2018-11-02T16:33:09.481Z,102245.53
2018-11-02T16:35:37.233Z,102238.83
2018-11-02T16:38:06.382Z,102241.83
2018-11-02T16:40:33.902Z,102239.67
2018-11-02T16:43:02.825Z,102246.86
2018-11-02T16:45:31.161Z,102242.90
2018-11-02T16:47:58.976Z,102250.41
2018-11-02T16:50:27.266Z,102253.82
2018-11-02T16:52:56.150Z,102263.75
2018-11-02T16:55:24.484Z,102268.03
2018-11-02T16:57:52.943Z,102272.56
2018-11-02T17:00:21.174Z,102279.05
2018-11-02T17:02:49.516Z,102279.86
2018-11-02T17:05:17.866Z,102288.89
2018-11-02T17:07:46.227Z,102300.90
2018-11-02T17:10:14.576Z,102305.42
2018-11-02T17:12:43.205Z,102311.45
2018-11-02T17:15:11.065Z,102312.22
2018-11-02T17:17:39.877Z,102314.22
2018-11-02T17:20:08.228Z,102315.88
2018-11-02T17:22:36.794Z,102319.02
2018-11-02T17:25:04.915Z,102321.48
2018-11-02T17:27:33.266Z,102323.50
2018-11-02T17:30:01.686Z,102331.17
2018-11-02T17:32:29.441Z,102336.20
2018-11-02T17:34:58.373Z,102340.98
2018-11-02T17:37:26.715Z,102350.40
2018-11-02T17:39:55.374Z,102343.08
2018-11-02T17:42:23.734Z,102340.64
2018-11-02T17:44:52.090Z,102337.59
2018-11-02T17:47:19.860Z,102342.95
2018-11-02T17:49:48.788Z,102345.34
2018-11-02T17:52:17.134Z,102349.44
2018-11-02T17:54:44.886Z,102348.48
2018-11-02T17:57:13.800Z,102349.38
2018-11-02T17:59:41.585Z,102349.21
2018-11-02T18:02:10.519Z,102341.44
2018-11-02T18:04:38.864Z,102342.67
2018-11-02T18:07:07.219Z,102345.60
2018-11-02T18:09:35.564Z,102345.65
2018-11-02T18:12:03.956Z,102341.11
2018-11-02T18:14:32.299Z,102344.05
2018-11-02T18:17:00.591Z,102354.39
2018-11-02T18:19:28.946Z,102347.69
2018-11-02T18:21:57.336Z,102347.34
2018-11-02T18:24:25.659Z,102352.48
2018-11-02T18:26:53.966Z,102355.92
2018-11-02T18:29:22.343Z,102364.00
2018-11-02T18:31:50.906Z,102372.75
2018-11-02T18:34:19.231Z,102369.27
2018-11-02T18:36:47.594Z,102369.40
2018-11-02T18:39:17.114Z,102377.60
2018-11-02T18:41:44.909Z,102376.03
2018-11-02T18:44:14.508Z,102379.02
2018-11-02T18:46:42.298Z,102376.73
2018-11-02T18:49:11.214Z,102377.72
2018-11-02T18:51:39.566Z,102388.19
2018-11-02T18:54:29.231Z,102402.11
2018-11-02T18:56:53.167Z,102403.18
2018-11-02T18:59:21.797Z,102398.72
2018-11-02T19:01:50.229Z,102405.05
2018-11-02T19:04:18.573Z,102412.75
2018-11-02T19:06:46.333Z,102420.59
2018-11-02T19:09:15.600Z,102427.72
2018-11-02T19:11:44.309Z,102428.81
2018-11-02T19:14:12.646Z,102428.07
2018-11-02T19:16:40.430Z,102427.16
2018-11-02T19:19:09.357Z,102430.66
2018-11-02T19:21:37.897Z,102438.49
2018-11-02T19:24:06.196Z,102438.92
2018-11-02T19:26:34.549Z,102445.30
2018-11-02T19:29:03.079Z,102438.80
2018-11-02T19:31:30.829Z,102435.36
2018-11-02T19:33:59.774Z,102442.86
2018-11-02T19:36:28.363Z,102455.02
2018-11-02T19:38:56.995Z,102457.69
2018-11-02T19:41:24.737Z,102461.69
2018-11-02T19:43:53.728Z,102467.37
2018-11-02T19:46:22.069Z,102471.34
2018-11-02T19:48:50.435Z,102476.11
2018-11-02T19:51:21.958Z,102473.52
2018-11-02T19:53:50.306Z,102463.50
2018-11-02T19:56:18.064Z,102464.67
2018-11-02T19:58:46.987Z,102465.38
2018-11-02T20:01:15.359Z,102466.66
2018-11-02T20:03:43.698Z,102472.42
2018-11-02T20:06:12.045Z,102482.41
2018-11-02T20:08:40.401Z,102485.33
2018-11-02T20:11:08.859Z,102487.23
2018-11-02T20:13:37.373Z,102489.80
2018-11-02T20:16:05.813Z,102493.95
2018-11-02T20:18:34.258Z,102495.48
2018-11-02T20:21:02.844Z,102492.30
2018-11-02T20:23:31.189Z,102495.89
2018-11-02T20:25:59.001Z,102500.52
2018-11-02T20:28:29.202Z,102505.41
2018-11-02T20:30:57.882Z,102501.29
2018-11-02T20:33:26.584Z,102498.91
2018-11-02T20:35:54.950Z,102498.88
2018-11-02T20:38:23.955Z,102491.49
2018-11-02T20:40:52.119Z,102492.55
2018-11-02T20:43:20.447Z,102497.58
2018-11-02T20:45:48.828Z,102497.31
2018-11-02T20:48:23.408Z,102498.14
2018-11-02T20:50:51.192Z,102494.00
2018-11-02T20:53:20.183Z,102496.22
2018-11-02T20:55:48.819Z,102499.09
2018-11-02T20:58:17.028Z,102509.66
2018-11-02T21:00:46.105Z,102505.84
2018-11-02T21:03:16.028Z,102506.74
2018-11-02T21:05:44.501Z,102506.05
2018-11-02T21:08:12.442Z,102515.93
2018-11-02T21:10:41.637Z,102522.36
2018-11-02T21:13:09.903Z,102515.45
2018-11-02T21:15:38.844Z,102520.28
2018-11-02T21:18:07.304Z,102524.47
2018-11-02T21:20:35.079Z,102522.45
2018-11-02T21:23:04.006Z,102527.66
2018-11-02T21:25:32.354Z,102531.91
2018-11-02T21:28:01.054Z,102524.49
2018-11-02T21:30:29.527Z,102523.64
2018-11-02T21:32:58.480Z,102527.27
2018-11-02T21:35:26.780Z,102530.12
2018-11-02T21:37:55.165Z,102534.20
2018-11-02T21:40:24.929Z,102533.05
2018-11-02T21:42:53.276Z,102538.05
2018-11-02T21:45:21.625Z,102546.34
2018-11-02T21:47:50.552Z,102538.37
2018-11-02T21:50:18.394Z,102534.86
2018-11-02T21:52:47.832Z,102539.00
2018-11-02T21:55:17.402Z,102543.55
2018-11-02T21:57:44.832Z,102537.78
2018-11-02T22:00:13.370Z,102530.08
2018-11-02T22:02:41.123Z,102535.60
2018-11-02T22:05:10.038Z,102539.34
2018-11-02T22:07:38.466Z,102541.90
2018-11-02T22:10:07.146Z,102538.66
2018-11-02T22:12:35.647Z,102528.70
2018-11-02T22:15:04.003Z,102529.17
2018-11-02T22:17:31.758Z,102539.50
2018-11-02T22:20:00.671Z,102545.36
2018-11-02T22:22:29.073Z,102548.19
2018-11-02T22:24:57.398Z,102552.95
2018-11-02T22:27:26.017Z,102557.55
2018-11-02T22:29:54.341Z,102564.45
2018-11-02T22:32:22.091Z,102563.65
2018-11-02T22:34:51.357Z,102566.94
2018-11-02T22:37:19.206Z,102567.62
2018-11-02T22:39:48.018Z,102565.11
2018-11-02T22:42:15.757Z,102565.20
2018-11-02T22:44:44.086Z,102574.22
2018-11-02T22:47:12.418Z,102579.92
2018-11-02T22:49:41.334Z,102581.95
2018-11-02T22:52:09.077Z,102585.13
2018-11-02T22:54:37.414Z,102593.29
2018-11-02T22:57:05.742Z,102592.03
2018-11-02T22:59:34.672Z,102592.25
2018-11-02T23:02:03.008Z,102588.16
2018-11-02T23:04:31.341Z,102591.41
2018-11-02T23:06:59.606Z,102588.16
2018-11-02T23:09:28.007Z,102590.67
2018-11-02T23:11:56.333Z,102590.81
2018-11-02T23:14:24.113Z,102582.84
2018-11-02T23:16:52.979Z,102588.84
2018-11-02T23:19:20.751Z,102589.79
2018-11-02T23:21:49.656Z,102578.53
2018-11-02T23:24:17.391Z,102582.50
2018-11-02T23:26:45.716Z,102584.09
2018-11-02T23:29:14.627Z,102584.82
2018-11-02T23:31:42.958Z,102576.84
2018-11-02T23:34:10.702Z,102573.48
2018-11-02T23:36:39.031Z,102572.77
2018-11-02T23:39:08.150Z,102575.58
2018-11-02T23:41:36.506Z,102574.98
2018-11-02T23:44:05.900Z,102576.02
2018-11-02T23:46:34.229Z,102585.25
2018-11-02T23:49:02.599Z,102586.66
2018-11-02T23:51:30.907Z,102586.73
2018-11-02T23:53:59.238Z,102587.74
2018-11-02T23:56:27.560Z,102584.23
2018-11-02T23:58:55.312Z,102583.35
